createdAt,value
2024-03-08T00:00:10.855Z,18.75
2024-03-08T00:01:17.585Z,19.38
2024-03-08T00:02:20.761Z,19.02
2024-03-08T00:03:24.497Z,19.55
2024-03-08T00:04:27.284Z,19.20
2024-03-08T00:05:30.134Z,18.52
2024-03-08T00:06:33.112Z,18.20
2024-03-08T00:07:42.736Z,17.45
2024-03-08T00:08:45.444Z,18.63
2024-03-08T00:09:49.174Z,18.35
2024-03-08T00:10:52.092Z,18.25
2024-03-08T00:11:55.147Z,18.15
2024-03-08T00:12:59.145Z,20.52
2024-03-08T00:14:02.231Z,19.08
2024-03-08T00:15:05.752Z,18.48
2024-03-08T00:16:10.541Z,19.27
2024-03-08T00:17:13.365Z,18.55
2024-03-08T00:18:16.208Z,18.13
2024-03-08T00:19:19.060Z,17.95
2024-03-08T00:20:22.027Z,18.38
2024-03-08T00:21:24.795Z,19.17
2024-03-08T00:22:27.614Z,18.98
2024-03-08T00:23:30.715Z,19.35
2024-03-08T00:24:33.439Z,20.75
2024-03-08T00:25:35.914Z,19.58
2024-03-08T00:26:38.765Z,19.67
2024-03-08T00:27:42.474Z,18.45
2024-03-08T00:28:45.178Z,18.67
2024-03-08T00:29:48.380Z,19.30
2024-03-08T00:30:51.187Z,18.50
2024-03-08T00:31:54.071Z,18.73
2024-03-08T00:32:56.822Z,19.85
2024-03-08T00:33:59.862Z,18.67
2024-03-08T00:35:03.107Z,18.90
2024-03-08T00:36:06.036Z,19.65
2024-03-08T00:37:09.898Z,18.15
2024-03-08T00:38:12.714Z,17.25
2024-03-08T00:39:15.518Z,18.85
2024-03-08T00:40:19.375Z,16.75
2024-03-08T00:41:22.433Z,19.17
2024-03-08T00:42:25.797Z,18.13
2024-03-08T00:43:28.443Z,19.92
2024-03-08T00:44:31.402Z,17.98
2024-03-08T00:45:34.179Z,20.08
2024-03-08T00:46:37.101Z,17.50
2024-03-08T00:47:40.461Z,18.98
2024-03-08T00:48:45.050Z,17.15
2024-03-08T00:49:48.238Z,17.63
2024-03-08T00:50:51.378Z,20.25
2024-03-08T00:51:53.825Z,19.63
2024-03-08T00:52:57.598Z,17.77
2024-03-08T00:54:00.211Z,17.65
2024-03-08T00:55:03.270Z,16.63
2024-03-08T00:56:06.190Z,17.95
2024-03-08T00:57:09.235Z,18.02
2024-03-08T00:58:12.006Z,18.23
2024-03-08T00:59:15.656Z,20.25
2024-03-08T01:00:18.957Z,18.38
2024-03-08T01:01:21.620Z,17.58
2024-03-08T01:02:24.684Z,20.00
2024-03-08T01:03:27.861Z,18.42
2024-03-08T01:04:30.730Z,19.38
2024-03-08T01:05:33.574Z,20.00
2024-03-08T01:06:36.153Z,18.05
2024-03-08T01:07:39.054Z,19.00
2024-03-08T01:08:43.585Z,18.25
2024-03-08T01:09:46.303Z,18.77
2024-03-08T01:10:49.048Z,18.77
2024-03-08T01:11:52.025Z,17.98
2024-03-08T01:12:55.938Z,18.90
2024-03-08T01:13:58.740Z,19.08
2024-03-08T01:15:01.568Z,19.15
2024-03-08T01:16:05.152Z,19.00
2024-03-08T01:17:08.127Z,17.48
2024-03-08T01:18:11.545Z,17.30
2024-03-08T01:19:14.991Z,16.98
2024-03-08T01:20:19.218Z,17.33
2024-03-08T01:21:21.868Z,18.85
2024-03-08T01:22:25.044Z,18.17
2024-03-08T01:23:28.759Z,18.60
2024-03-08T01:24:31.648Z,18.23
2024-03-08T01:25:35.154Z,19.95
2024-03-08T01:26:38.133Z,19.20
2024-03-08T01:27:40.992Z,20.02
2024-03-08T01:28:43.708Z,18.70
2024-03-08T01:29:46.307Z,18.20
2024-03-08T01:30:50.743Z,19.08
2024-03-08T01:31:53.914Z,18.15
2024-03-08T01:32:56.770Z,18.98
2024-03-08T01:33:59.921Z,16.48
2024-03-08T01:35:03.941Z,17.83
2024-03-08T01:37:09.403Z,18.38
2024-03-08T01:38:12.176Z,16.20
2024-03-08T01:39:14.738Z,18.08
2024-03-08T01:40:18.121Z,17.35
2024-03-08T01:41:21.214Z,16.15
2024-03-08T01:42:24.117Z,18.02
2024-03-08T01:43:30.297Z,16.85
2024-03-08T01:44:33.486Z,16.73
2024-03-08T01:45:36.343Z,19.30
2024-03-08T01:46:39.069Z,18.02
2024-03-08T01:47:42.064Z,18.98
2024-03-08T01:48:45.062Z,18.60
2024-03-08T01:49:47.686Z,17.45
2024-03-08T01:50:50.853Z,18.88
2024-03-08T01:51:53.744Z,17.25
2024-03-08T01:52:59.778Z,18.08
2024-03-08T01:54:03.979Z,17.10
2024-03-08T01:55:10.149Z,19.55
2024-03-08T01:56:15.191Z,18.33
2024-03-08T01:57:18.195Z,17.15
2024-03-08T01:58:23.369Z,18.92
2024-03-08T01:59:29.898Z,18.05
2024-03-08T02:00:34.513Z,18.20
2024-03-08T02:01:37.266Z,18.52
2024-03-08T02:02:42.257Z,20.00
2024-03-08T02:03:46.297Z,17.50
2024-03-08T02:04:49.856Z,19.30
2024-03-08T02:05:56.211Z,18.25
2024-03-08T02:07:01.641Z,20.38
2024-03-08T02:08:05.090Z,18.30
2024-03-08T02:09:08.353Z,18.95
2024-03-08T02:10:11.977Z,19.20
2024-03-08T02:11:15.384Z,17.48
2024-03-08T02:12:18.567Z,19.08
2024-03-08T02:13:20.953Z,18.00
2024-03-08T02:14:23.843Z,18.83
2024-03-08T02:15:27.391Z,17.67
2024-03-08T02:16:29.843Z,18.05
2024-03-08T02:17:32.583Z,18.50
2024-03-08T02:18:41.054Z,20.33
2024-03-08T02:19:44.265Z,17.88
2024-03-08T02:20:49.096Z,18.83
2024-03-08T02:21:51.618Z,19.90
2024-03-08T02:22:54.573Z,18.50
2024-03-08T02:23:57.170Z,18.50
2024-03-08T02:25:02.749Z,17.52
2024-03-08T02:26:06.331Z,19.05
2024-03-08T02:27:09.043Z,18.90
2024-03-08T02:28:12.904Z,18.52
2024-03-08T02:29:16.173Z,18.67
2024-03-08T02:30:18.998Z,19.25
2024-03-08T02:31:23.124Z,17.80
2024-03-08T02:32:25.615Z,18.77
2024-03-08T02:33:30.505Z,18.70
2024-03-08T02:34:33.247Z,18.23
2024-03-08T02:35:36.796Z,18.08
2024-03-08T02:36:39.953Z,17.98
2024-03-08T02:37:42.646Z,17.85
2024-03-08T02:38:45.466Z,18.33
2024-03-08T02:39:48.330Z,18.17
2024-03-08T02:40:52.447Z,19.80
2024-03-08T02:41:55.504Z,18.05
2024-03-08T02:42:58.385Z,19.02
2024-03-08T02:44:01.338Z,17.60
2024-03-08T02:45:06.920Z,16.58
2024-03-08T02:46:09.783Z,18.05
2024-03-08T02:47:12.516Z,18.25
2024-03-08T02:48:16.324Z,18.15
2024-03-08T02:49:19.151Z,17.35
2024-03-08T02:50:23.723Z,16.92
2024-03-08T02:51:27.941Z,18.02
2024-03-08T02:52:30.680Z,19.40
2024-03-08T02:53:33.493Z,17.77
2024-03-08T02:54:38.086Z,17.45
2024-03-08T02:55:41.861Z,17.38
2024-03-08T02:56:44.690Z,18.88
2024-03-08T02:57:50.548Z,18.17
2024-03-08T02:58:54.511Z,17.23
2024-03-08T02:59:57.176Z,18.17
2024-03-08T03:00:59.965Z,18.00
2024-03-08T03:02:02.988Z,17.55
2024-03-08T03:03:06.062Z,18.05
2024-03-08T03:04:08.836Z,17.58
2024-03-08T03:05:12.807Z,16.83
2024-03-08T03:06:15.681Z,17.42
2024-03-08T03:07:18.268Z,17.25
2024-03-08T03:08:21.434Z,18.15
2024-03-08T03:09:28.839Z,17.33
2024-03-08T03:10:32.488Z,17.98
2024-03-08T03:11:34.888Z,19.05
2024-03-08T03:12:37.728Z,16.88
2024-03-08T03:13:41.186Z,18.58
2024-03-08T03:14:43.929Z,19.25
2024-03-08T03:15:47.971Z,18.10
2024-03-08T03:16:51.310Z,17.98
2024-03-08T03:17:53.822Z,17.50
2024-03-08T03:18:58.447Z,17.70
2024-03-08T03:20:06.284Z,18.40
2024-03-08T03:21:09.239Z,17.20
2024-03-08T03:22:12.009Z,17.55
2024-03-08T03:23:16.737Z,17.98
2024-03-08T03:24:19.910Z,18.38
2024-03-08T03:25:34.905Z,18.30
2024-03-08T03:26:40.416Z,18.00
2024-03-08T03:27:43.217Z,18.25
2024-03-08T03:28:45.689Z,18.20
2024-03-08T03:29:48.550Z,17.83
2024-03-08T03:30:51.311Z,17.75
2024-03-08T03:31:54.146Z,18.25
2024-03-08T03:32:58.400Z,18.05
2024-03-08T03:34:03.839Z,18.60
2024-03-08T03:35:07.349Z,18.02
2024-03-08T03:36:11.386Z,18.20
2024-03-08T03:38:17.177Z,18.08
2024-03-08T03:39:21.472Z,18.35
2024-03-08T03:40:26.643Z,17.45
2024-03-08T03:41:29.246Z,17.33
2024-03-08T03:42:31.873Z,18.90
2024-03-08T03:43:34.743Z,19.75
2024-03-08T03:44:38.517Z,18.33
2024-03-08T03:45:43.086Z,18.95
2024-03-08T03:46:46.088Z,20.17
2024-03-08T03:47:48.938Z,17.95
2024-03-08T03:48:51.737Z,18.63
2024-03-08T03:49:55.582Z,18.98
2024-03-08T03:50:58.217Z,18.42
2024-03-08T03:52:01.559Z,19.02
2024-03-08T03:53:04.966Z,18.27
2024-03-08T03:54:07.593Z,19.02
2024-03-08T03:55:12.405Z,18.70
2024-03-08T03:56:15.255Z,19.08
2024-03-08T03:57:19.307Z,18.80
2024-03-08T03:58:24.088Z,17.17
2024-03-08T03:59:26.937Z,19.25
2024-03-08T04:00:29.775Z,18.65
2024-03-08T04:01:33.816Z,20.23
2024-03-08T04:02:39.672Z,17.27
2024-03-08T04:03:44.361Z,17.15
2024-03-08T04:04:48.023Z,19.35
2024-03-08T04:05:50.550Z,18.60
2024-03-08T04:06:53.345Z,18.67
2024-03-08T04:07:55.967Z,20.95
2024-03-08T04:08:58.537Z,18.10
2024-03-08T04:10:05.112Z,18.85
2024-03-08T04:11:07.614Z,18.50
2024-03-08T04:12:11.110Z,19.05
2024-03-08T04:13:13.889Z,17.83
2024-03-08T04:14:16.642Z,20.05
2024-03-08T04:15:19.221Z,19.70
2024-03-08T04:16:22.229Z,19.52
2024-03-08T04:17:28.314Z,19.15
2024-03-08T04:18:31.646Z,20.52
2024-03-08T04:19:35.773Z,19.33
2024-03-08T04:20:38.661Z,21.48
2024-03-08T04:21:41.364Z,19.42
2024-03-08T04:22:50.997Z,18.98
2024-03-08T04:23:54.178Z,19.17
2024-03-08T04:24:57.045Z,20.92
2024-03-08T04:26:00.400Z,19.70
2024-03-08T04:27:03.339Z,17.77
2024-03-08T04:28:06.238Z,18.92
2024-03-08T04:29:08.943Z,19.67
2024-03-08T04:30:12.329Z,18.85
2024-03-08T04:31:16.945Z,19.48
2024-03-08T04:32:19.753Z,20.13
2024-03-08T04:33:23.845Z,20.58
2024-03-08T04:35:29.113Z,17.95
2024-03-08T04:36:31.910Z,18.40
2024-03-08T04:37:36.475Z,19.23
2024-03-08T04:38:42.297Z,19.38
2024-03-08T04:39:45.498Z,19.38
2024-03-08T04:40:48.291Z,18.27
2024-03-08T04:41:51.572Z,19.45
2024-03-08T04:42:54.653Z,19.88
2024-03-08T04:43:58.995Z,19.05
2024-03-08T04:46:05.177Z,19.10
2024-03-08T04:47:07.831Z,19.90
2024-03-08T04:48:10.845Z,18.60
2024-03-08T04:49:14.562Z,20.17
2024-03-08T04:50:17.158Z,19.98
2024-03-08T04:51:21.000Z,19.13
2024-03-08T04:52:23.858Z,18.45
2024-03-08T04:53:26.633Z,18.77
2024-03-08T04:54:29.600Z,18.63
2024-03-08T04:55:32.406Z,19.33
2024-03-08T04:56:35.073Z,19.08
2024-03-08T04:57:38.240Z,19.13
2024-03-08T04:58:40.753Z,18.05
2024-03-08T04:59:43.933Z,18.75
2024-03-08T05:00:47.064Z,19.80
2024-03-08T05:01:49.597Z,18.95
2024-03-08T05:02:54.894Z,19.55
2024-03-08T05:04:00.710Z,19.23
2024-03-08T05:05:14.166Z,19.70
2024-03-08T05:06:17.766Z,18.98
2024-03-08T05:07:20.777Z,17.52
2024-03-08T05:08:23.236Z,18.50
2024-03-08T05:09:25.978Z,19.33
2024-03-08T05:10:28.785Z,18.00
2024-03-08T05:11:31.345Z,18.10
2024-03-08T05:12:37.204Z,19.33
2024-03-08T05:13:41.452Z,19.98
2024-03-08T05:14:43.814Z,19.50
2024-03-08T05:15:51.720Z,19.35
2024-03-08T05:16:54.541Z,18.85
2024-03-08T05:17:59.474Z,19.88
2024-03-08T05:19:02.018Z,17.88
2024-03-08T05:20:09.584Z,18.17
2024-03-08T05:21:12.127Z,18.60
2024-03-08T05:22:15.053Z,18.30
2024-03-08T05:23:17.777Z,18.98
2024-03-08T05:24:20.577Z,17.55
2024-03-08T05:25:23.598Z,21.35
2024-03-08T05:26:26.375Z,19.50
2024-03-08T05:27:29.837Z,18.45
2024-03-08T05:28:32.339Z,19.05
2024-03-08T05:29:35.097Z,19.58
2024-03-08T05:30:39.724Z,20.02
2024-03-08T05:31:49.953Z,19.23
2024-03-08T05:33:57.225Z,18.27
2024-03-08T05:34:59.782Z,20.95
2024-03-08T05:36:03.663Z,18.58
2024-03-08T05:37:06.697Z,18.83
2024-03-08T05:38:09.519Z,19.95
2024-03-08T05:39:13.337Z,20.98
2024-03-08T05:40:18.605Z,19.63
2024-03-08T05:41:22.373Z,19.90
2024-03-08T05:42:25.071Z,21.48
2024-03-08T05:43:28.157Z,20.05
2024-03-08T05:44:32.297Z,20.67
2024-03-08T05:45:35.766Z,20.02
2024-03-08T05:46:39.008Z,19.58
2024-03-08T05:47:42.062Z,19.40
2024-03-08T05:48:45.103Z,19.98
2024-03-08T05:49:47.925Z,20.52
2024-03-08T05:50:50.632Z,21.02
2024-03-08T05:51:54.461Z,21.48
2024-03-08T05:52:56.905Z,19.85
2024-03-08T05:53:59.736Z,18.75
2024-03-08T05:55:02.629Z,19.00
2024-03-08T05:56:05.893Z,17.80
2024-03-08T05:57:08.624Z,18.75
2024-03-08T05:58:12.836Z,19.65
2024-03-08T05:59:15.511Z,18.38
2024-03-08T06:00:20.514Z,19.52
2024-03-08T06:01:23.513Z,18.45
2024-03-08T06:02:26.363Z,18.48
2024-03-08T06:03:29.040Z,20.00
2024-03-08T06:04:31.600Z,19.27
2024-03-08T06:05:34.836Z,18.92
2024-03-08T06:06:39.273Z,18.13
2024-03-08T06:07:42.278Z,19.00
2024-03-08T06:08:45.654Z,18.10
2024-03-08T06:09:49.423Z,18.35
2024-03-08T06:10:54.004Z,18.65
2024-03-08T06:11:58.599Z,17.77
2024-03-08T06:13:02.886Z,19.00
2024-03-08T06:14:05.660Z,18.65
2024-03-08T06:15:16.357Z,19.05
2024-03-08T06:17:21.202Z,17.67
2024-03-08T06:18:24.041Z,18.40
2024-03-08T06:19:26.786Z,18.05
2024-03-08T06:20:29.443Z,18.02
2024-03-08T06:21:32.890Z,18.05
2024-03-08T06:22:35.686Z,18.52
2024-03-08T06:23:39.798Z,19.13
2024-03-08T06:24:42.841Z,18.95
2024-03-08T06:25:48.040Z,18.58
2024-03-08T06:26:50.582Z,18.38
2024-03-08T06:27:54.508Z,18.75
2024-03-08T06:28:57.115Z,17.67
2024-03-08T06:29:59.645Z,19.55
2024-03-08T06:31:03.761Z,18.95
2024-03-08T06:32:06.906Z,22.02
2024-03-08T06:33:09.761Z,22.20
2024-03-08T06:34:12.969Z,20.73
2024-03-08T06:35:17.612Z,19.80
2024-03-08T06:36:20.471Z,20.25
2024-03-08T06:37:25.118Z,24.52
2024-03-08T06:38:28.176Z,26.35
2024-03-08T06:39:33.210Z,24.77
2024-03-08T06:40:36.172Z,24.67
2024-03-08T06:41:39.552Z,23.75
2024-03-08T06:42:42.782Z,25.83
2024-03-08T06:43:50.457Z,21.48
2024-03-08T06:44:56.626Z,20.17
2024-03-08T06:45:59.267Z,19.58
2024-03-08T06:47:01.840Z,18.55
2024-03-08T06:48:04.817Z,19.48
2024-03-08T06:49:08.564Z,18.80
2024-03-08T06:50:12.765Z,19.83
2024-03-08T06:52:18.573Z,16.30
2024-03-08T06:53:23.924Z,18.67
2024-03-08T06:54:27.966Z,17.60
2024-03-08T06:55:30.449Z,17.85
2024-03-08T06:56:33.252Z,18.92
2024-03-08T06:57:36.074Z,18.02
2024-03-08T06:58:38.908Z,18.83
2024-03-08T06:59:41.822Z,19.20
2024-03-08T07:00:45.528Z,18.00
2024-03-08T07:01:49.719Z,18.52
2024-03-08T07:02:55.149Z,17.30
2024-03-08T07:03:58.237Z,18.77
2024-03-08T07:05:00.954Z,17.23
2024-03-08T07:06:04.797Z,17.98
2024-03-08T07:07:10.930Z,17.73
2024-03-08T07:08:15.452Z,16.15
2024-03-08T07:09:18.275Z,17.67
2024-03-08T07:10:20.837Z,18.77
2024-03-08T07:11:23.516Z,18.38
2024-03-08T07:12:26.591Z,20.13
2024-03-08T07:13:32.006Z,19.52
2024-03-08T07:14:36.575Z,18.83
2024-03-08T07:15:39.015Z,19.48
2024-03-08T07:16:42.841Z,18.55
2024-03-08T07:17:46.006Z,18.65
2024-03-08T07:18:49.140Z,16.65
2024-03-08T07:19:52.210Z,18.00
2024-03-08T07:20:54.945Z,17.83
2024-03-08T07:21:57.652Z,16.70
2024-03-08T07:23:01.128Z,17.45
2024-03-08T07:24:11.038Z,19.17
2024-03-08T07:25:23.346Z,20.10
2024-03-08T07:26:26.166Z,21.25
2024-03-08T07:27:29.806Z,20.02
2024-03-08T07:28:32.585Z,18.45
2024-03-08T07:29:37.878Z,19.88
2024-03-08T07:30:46.831Z,19.52
2024-03-08T07:31:57.549Z,18.08
2024-03-08T07:33:00.015Z,18.73
2024-03-08T07:34:02.618Z,18.10
2024-03-08T07:35:08.097Z,19.48
2024-03-08T07:36:10.917Z,19.00
2024-03-08T07:37:14.976Z,17.95
2024-03-08T07:38:18.118Z,18.60
2024-03-08T07:39:20.926Z,19.40
2024-03-08T07:40:24.452Z,17.95
2024-03-08T07:41:27.148Z,18.65
2024-03-08T07:42:30.373Z,17.80
2024-03-08T07:43:36.647Z,19.25
2024-03-08T07:44:41.283Z,19.50
2024-03-08T07:45:44.133Z,18.90
2024-03-08T07:46:46.612Z,17.27
2024-03-08T07:47:49.493Z,17.88
2024-03-08T07:48:54.985Z,17.05
2024-03-08T07:50:01.532Z,17.83
2024-03-08T07:51:05.813Z,17.73
2024-03-08T07:52:08.849Z,17.17
2024-03-08T07:53:11.876Z,17.40
2024-03-08T07:54:14.603Z,17.83
2024-03-08T07:55:17.448Z,17.30
2024-03-08T07:56:20.561Z,17.65
2024-03-08T07:57:23.273Z,18.10
2024-03-08T07:58:26.398Z,17.00
2024-03-08T07:59:29.092Z,18.80
2024-03-08T08:00:32.980Z,17.85
2024-03-08T08:02:40.589Z,19.45
2024-03-08T08:03:43.476Z,20.45
2024-03-08T08:04:46.465Z,19.83
2024-03-08T08:05:50.560Z,18.95
2024-03-08T08:06:53.174Z,19.30
2024-03-08T08:07:56.056Z,19.83
2024-03-08T08:08:58.877Z,18.73
2024-03-08T08:10:01.738Z,19.05
2024-03-08T08:11:04.421Z,19.33
2024-03-08T08:12:08.435Z,19.65
2024-03-08T08:13:11.239Z,19.15
2024-03-08T08:14:13.692Z,20.08
2024-03-08T08:15:16.635Z,17.67
2024-03-08T08:16:19.144Z,16.77
2024-03-08T08:17:22.048Z,18.05
2024-03-08T08:18:26.650Z,17.38
2024-03-08T08:19:29.267Z,16.88
2024-03-08T08:20:33.183Z,16.83
2024-03-08T08:21:38.082Z,18.20
2024-03-08T08:22:47.343Z,19.00
2024-03-08T08:23:50.269Z,18.40
2024-03-08T08:24:53.567Z,19.55
2024-03-08T08:25:56.979Z,19.05
2024-03-08T08:27:00.760Z,18.90
2024-03-08T08:28:05.614Z,18.00
2024-03-08T08:29:09.080Z,18.52
2024-03-08T08:30:12.820Z,18.05
2024-03-08T08:31:15.334Z,19.40
2024-03-08T08:32:17.779Z,18.30
2024-03-08T08:33:20.834Z,18.23
2024-03-08T08:34:25.346Z,16.85
2024-03-08T08:35:28.264Z,17.27
2024-03-08T08:36:31.225Z,17.17
2024-03-08T08:37:35.229Z,17.10
2024-03-08T08:38:37.684Z,18.30
2024-03-08T08:39:40.273Z,15.60
2024-03-08T08:40:42.783Z,18.17
2024-03-08T08:41:45.966Z,17.55
2024-03-08T08:42:50.611Z,17.35
2024-03-08T08:43:59.176Z,16.85
2024-03-08T08:45:16.604Z,17.63
2024-03-08T08:46:25.433Z,17.90
2024-03-08T08:47:32.220Z,18.50
2024-03-08T08:48:36.724Z,15.88
2024-03-08T08:49:40.447Z,18.02
2024-03-08T08:50:46.168Z,16.85
2024-03-08T08:51:54.005Z,17.30
2024-03-08T08:53:00.213Z,17.15
2024-03-08T08:54:03.354Z,16.42
2024-03-08T08:55:07.907Z,17.27
2024-03-08T08:56:14.231Z,17.38
2024-03-08T08:57:18.901Z,17.52
2024-03-08T08:58:21.965Z,17.35
2024-03-08T08:59:26.423Z,18.40
2024-03-08T09:00:29.850Z,16.88
2024-03-08T09:01:33.323Z,18.10
2024-03-08T09:02:39.150Z,17.70
2024-03-08T09:03:43.432Z,17.10
2024-03-08T09:04:46.480Z,16.10
2024-03-08T09:05:49.324Z,17.30
2024-03-08T09:06:52.190Z,16.83
2024-03-08T09:07:54.752Z,16.75
2024-03-08T09:08:57.891Z,17.83
2024-03-08T09:11:11.893Z,17.50
2024-03-08T09:12:14.722Z,17.50
2024-03-08T09:13:24.812Z,16.75
2024-03-08T09:14:33.512Z,16.83
2024-03-08T09:15:37.431Z,17.02
2024-03-08T09:16:41.009Z,16.80
2024-03-08T09:17:45.829Z,17.65
2024-03-08T09:18:49.367Z,16.58
2024-03-08T09:19:52.071Z,18.63
2024-03-08T09:20:55.203Z,16.80
2024-03-08T09:21:58.288Z,18.52
2024-03-08T09:23:01.384Z,16.50
2024-03-08T09:24:04.283Z,18.02
2024-03-08T09:25:08.816Z,18.33
2024-03-08T09:27:21.252Z,17.63
2024-03-08T09:28:23.858Z,17.95
2024-03-08T09:29:26.796Z,17.02
2024-03-08T09:30:30.258Z,17.02
2024-03-08T09:31:33.124Z,17.52
2024-03-08T09:32:36.566Z,17.88
2024-03-08T09:33:40.464Z,16.25
2024-03-08T09:34:43.591Z,18.20
2024-03-08T09:35:48.226Z,18.83
2024-03-08T09:36:53.473Z,17.35
2024-03-08T09:37:57.239Z,19.27
2024-03-08T09:39:00.380Z,18.13
2024-03-08T09:40:06.248Z,20.95
2024-03-08T09:41:11.653Z,21.30
2024-03-08T09:42:16.206Z,19.83
2024-03-08T09:43:22.603Z,18.80
2024-03-08T09:44:28.697Z,18.55
2024-03-08T09:45:33.523Z,18.63
2024-03-08T09:46:36.881Z,16.48
2024-03-08T09:47:43.751Z,17.33
2024-03-08T09:48:47.797Z,17.70
2024-03-08T09:49:50.238Z,17.33
2024-03-08T09:50:53.500Z,17.48
2024-03-08T09:51:57.129Z,17.45
2024-03-08T09:52:59.966Z,16.80
2024-03-08T09:54:12.075Z,17.83
2024-03-08T09:55:24.160Z,17.50
2024-03-08T09:56:29.266Z,16.85
2024-03-08T09:57:32.338Z,16.45
2024-03-08T09:58:34.792Z,19.58
2024-03-08T09:59:37.734Z,17.40
2024-03-08T10:00:40.311Z,20.48
2024-03-08T10:01:43.492Z,18.13
2024-03-08T10:02:49.800Z,17.23
2024-03-08T10:03:56.337Z,18.02
2024-03-08T10:04:59.201Z,17.58
2024-03-08T10:06:01.871Z,17.15
2024-03-08T10:07:04.445Z,18.85
2024-03-08T10:08:08.178Z,18.25
2024-03-08T10:09:11.779Z,17.25
2024-03-08T10:10:14.781Z,17.38
2024-03-08T10:11:17.430Z,18.13
2024-03-08T10:12:21.001Z,17.27
2024-03-08T10:13:23.600Z,18.40
2024-03-08T10:14:30.254Z,18.30
2024-03-08T10:15:35.259Z,18.35
2024-03-08T10:16:39.623Z,18.10
2024-03-08T10:17:42.327Z,18.92
2024-03-08T10:18:46.667Z,18.38
2024-03-08T10:19:55.920Z,19.75
2024-03-08T10:21:05.672Z,18.50
2024-03-08T10:22:08.569Z,17.83
2024-03-08T10:23:12.582Z,18.15
2024-03-08T10:25:18.898Z,16.67
2024-03-08T10:26:23.018Z,16.60
2024-03-08T10:27:27.694Z,17.85
2024-03-08T10:28:30.592Z,17.73
2024-03-08T10:29:36.768Z,16.50
2024-03-08T10:30:39.703Z,16.83
2024-03-08T10:31:46.582Z,17.35
2024-03-08T10:32:49.662Z,18.15
2024-03-08T10:33:52.616Z,17.65
2024-03-08T10:34:55.501Z,17.20
2024-03-08T10:35:58.438Z,17.08
2024-03-08T10:37:07.230Z,16.70
2024-03-08T10:38:12.574Z,17.02
2024-03-08T10:39:26.240Z,16.88
2024-03-08T10:40:29.612Z,17.92
2024-03-08T10:41:33.244Z,16.98
2024-03-08T10:42:39.215Z,16.90
2024-03-08T10:44:21.711Z,16.52
2024-03-08T10:45:38.285Z,15.68
2024-03-08T10:47:07.012Z,17.33
2024-03-08T10:48:29.374Z,16.88
2024-03-08T10:49:40.958Z,16.88
2024-03-08T10:50:48.070Z,17.73
2024-03-08T10:51:53.193Z,17.52
2024-03-08T10:52:56.848Z,17.88
2024-03-08T10:54:01.275Z,17.60
2024-03-08T10:55:04.025Z,17.67
2024-03-08T10:56:08.742Z,17.30
2024-03-08T10:57:14.038Z,17.10
2024-03-08T10:58:17.617Z,17.50
2024-03-08T10:59:21.199Z,16.30
2024-03-08T11:00:28.324Z,17.02
2024-03-08T11:01:32.259Z,16.15
2024-03-08T11:02:34.842Z,16.90
2024-03-08T11:03:46.915Z,16.90
2024-03-08T11:04:51.039Z,17.55
2024-03-08T11:05:53.898Z,17.23
2024-03-08T11:07:04.648Z,17.75
2024-03-08T11:08:20.057Z,18.00
2024-03-08T11:09:39.982Z,18.10
2024-03-08T11:10:53.353Z,19.02
2024-03-08T11:12:31.450Z,16.75
2024-03-08T11:13:44.848Z,16.40
2024-03-08T11:14:51.111Z,17.50
2024-03-08T11:15:55.462Z,17.30
2024-03-08T11:16:58.361Z,16.27
2024-03-08T11:18:01.751Z,17.70
2024-03-08T11:19:11.936Z,16.67
2024-03-08T11:20:18.982Z,16.27
2024-03-08T11:21:25.203Z,17.70
2024-03-08T11:22:34.195Z,16.98
2024-03-08T11:23:37.282Z,17.15
2024-03-08T11:24:43.350Z,18.00
2024-03-08T11:25:47.333Z,16.38
2024-03-08T11:26:50.406Z,16.55
2024-03-08T11:28:21.901Z,17.00
2024-03-08T11:29:31.947Z,16.55
2024-03-08T11:30:34.681Z,17.83
2024-03-08T11:31:37.495Z,16.30
2024-03-08T11:32:40.593Z,16.98
2024-03-08T11:33:45.451Z,16.13
2024-03-08T11:34:50.939Z,15.70
2024-03-08T11:35:53.645Z,16.52
2024-03-08T11:36:57.664Z,17.35
2024-03-08T11:39:15.853Z,16.25
2024-03-08T11:40:21.316Z,16.67
2024-03-08T11:41:25.475Z,16.98
2024-03-08T11:42:28.833Z,16.70
2024-03-08T11:43:31.441Z,17.38
2024-03-08T11:44:33.889Z,17.52
2024-03-08T11:45:41.435Z,16.90
2024-03-08T11:46:47.975Z,17.25
2024-03-08T11:47:51.753Z,18.90
2024-03-08T11:48:57.347Z,17.40
2024-03-08T11:50:00.790Z,16.83
2024-03-08T11:51:04.560Z,17.10
2024-03-08T11:52:08.210Z,18.48
2024-03-08T11:53:10.653Z,17.38
2024-03-08T11:54:17.087Z,17.73
2024-03-08T11:55:21.994Z,17.02
2024-03-08T11:56:25.342Z,14.73
2024-03-08T11:57:29.885Z,16.77
2024-03-08T11:58:33.584Z,17.55
2024-03-08T11:59:36.277Z,16.52
2024-03-08T12:00:40.051Z,16.85
2024-03-08T12:01:43.035Z,16.58
2024-03-08T12:02:52.174Z,17.33
2024-03-08T12:03:56.621Z,17.08
2024-03-08T12:05:01.773Z,17.35
2024-03-08T12:06:05.795Z,33.35
2024-03-08T12:07:13.663Z,20.33
2024-03-08T12:08:16.871Z,19.85
2024-03-08T12:09:20.649Z,22.88
2024-03-08T12:10:24.142Z,32.53
2024-03-08T12:11:28.901Z,31.80
2024-03-08T12:12:34.044Z,26.65
2024-03-08T12:13:36.426Z,16.08
2024-03-08T12:14:39.856Z,18.00
2024-03-08T12:15:42.554Z,18.80
2024-03-08T12:16:45.209Z,16.17
2024-03-08T12:17:50.467Z,23.80
2024-03-08T12:18:53.472Z,19.73
2024-03-08T12:19:56.418Z,17.40
2024-03-08T12:21:10.176Z,16.45
2024-03-08T12:22:13.515Z,16.92
2024-03-08T12:23:18.006Z,16.35
2024-03-08T12:24:20.959Z,15.57
2024-03-08T12:25:24.049Z,16.08
2024-03-08T12:26:27.825Z,17.23
2024-03-08T12:27:31.285Z,15.52
2024-03-08T12:28:33.822Z,15.57
2024-03-08T12:29:40.702Z,15.15
2024-03-08T12:30:55.496Z,16.48
2024-03-08T12:32:06.566Z,16.23
2024-03-08T12:33:12.081Z,15.18
2024-03-08T12:34:15.937Z,16.27
2024-03-08T12:35:19.016Z,14.85
2024-03-08T12:36:22.065Z,15.32
2024-03-08T12:37:25.365Z,16.52
2024-03-08T12:38:33.327Z,15.52
2024-03-08T12:39:36.418Z,15.70
2024-03-08T12:40:43.473Z,15.23
2024-03-08T12:41:48.135Z,16.35
2024-03-08T12:42:50.932Z,15.68
2024-03-08T12:43:54.097Z,14.65
2024-03-08T12:44:56.665Z,14.98
2024-03-08T12:45:59.774Z,15.57
2024-03-08T12:47:02.628Z,15.48
2024-03-08T12:48:15.395Z,15.60
2024-03-08T12:49:19.050Z,16.27
2024-03-08T12:50:22.782Z,14.73
2024-03-08T12:51:25.442Z,14.98
2024-03-08T12:52:28.168Z,14.90
2024-03-08T12:53:30.665Z,15.40
2024-03-08T12:54:33.092Z,15.77
2024-03-08T12:55:37.486Z,18.42
2024-03-08T12:56:41.167Z,15.80
2024-03-08T12:57:44.091Z,15.75
2024-03-08T12:58:46.900Z,15.48
2024-03-08T12:59:51.059Z,16.02
2024-03-08T13:00:54.375Z,16.58
2024-03-08T13:02:01.140Z,15.65
2024-03-08T13:03:04.395Z,15.60
2024-03-08T13:04:08.110Z,15.25
2024-03-08T13:05:12.146Z,15.02
2024-03-08T13:06:14.890Z,16.27
2024-03-08T13:07:18.265Z,16.23
2024-03-08T13:08:21.848Z,15.30
2024-03-08T13:09:25.196Z,15.25
2024-03-08T13:10:28.019Z,15.95
2024-03-08T13:11:30.598Z,16.88
2024-03-08T13:12:33.319Z,16.15
2024-03-08T13:13:41.541Z,16.40
2024-03-08T13:14:44.338Z,15.65
2024-03-08T13:15:47.223Z,15.88
2024-03-08T13:16:50.217Z,16.02
2024-03-08T13:17:52.799Z,15.43
2024-03-08T13:18:55.651Z,16.90
2024-03-08T13:20:00.426Z,15.48
2024-03-08T13:21:07.370Z,15.75
2024-03-08T13:22:14.095Z,15.18
2024-03-08T13:23:16.692Z,16.15
2024-03-08T13:24:20.700Z,15.18
2024-03-08T13:25:25.438Z,15.32
2024-03-08T13:26:34.391Z,16.35
2024-03-08T13:27:38.126Z,14.88
2024-03-08T13:28:40.699Z,16.52
2024-03-08T13:29:44.169Z,16.90
2024-03-08T13:30:47.038Z,18.35
2024-03-08T13:31:53.266Z,16.48
2024-03-08T13:32:56.024Z,16.95
2024-03-08T13:34:01.549Z,16.55
2024-03-08T13:35:06.022Z,17.40
2024-03-08T13:36:16.125Z,18.05
2024-03-08T13:37:19.468Z,16.13
2024-03-08T13:38:22.022Z,17.88
2024-03-08T13:39:27.049Z,17.10
2024-03-08T13:40:29.923Z,17.15
2024-03-08T13:41:34.027Z,16.85
2024-03-08T13:42:36.786Z,17.45
2024-03-08T13:43:41.300Z,17.75
2024-03-08T13:44:47.541Z,16.92
2024-03-08T13:45:51.194Z,18.00
2024-03-08T13:46:55.017Z,17.20
2024-03-08T13:47:58.328Z,16.98
2024-03-08T13:49:11.034Z,15.50
2024-03-08T13:50:14.238Z,14.98
2024-03-08T13:51:18.809Z,17.77
2024-03-08T13:52:21.634Z,17.60
2024-03-08T13:53:25.050Z,16.85
2024-03-08T13:54:28.477Z,18.10
2024-03-08T13:55:32.232Z,18.38
2024-03-08T13:56:34.792Z,18.38
2024-03-08T13:57:37.762Z,18.17
2024-03-08T13:58:42.121Z,18.63
2024-03-08T13:59:45.590Z,19.60